sensor_id;sensor_type;location;lat;lon;timestamp;P1;durP1;ratioP1;P2;durP2;ratioP2
12921;SDS011;6528;48.086;16.282;2023-09-07T00:01:06;3.70;;;3.40;;
12921;SDS011;6528;48.086;16.282;2023-09-07T00:03:35;4.43;;;4.03;;
12921;SDS011;6528;48.086;16.282;2023-09-07T00:06:09;3.50;;;3.20;;
12921;SDS011;6528;48.086;16.282;2023-09-07T00:08:37;4.10;;;3.80;;
12921;SDS011;6528;48.086;16.282;2023-09-07T00:11:05;3.13;;;2.93;;
12921;SDS011;6528;48.086;16.282;2023-09-07T00:13:36;3.73;;;3.43;;
12921;SDS011;6528;48.086;16.282;2023-09-07T00:16:05;4.33;;;3.93;;
12921;SDS011;6528;48.086;16.282;2023-09-07T00:18:34;4.07;;;3.77;;
12921;SDS011;6528;48.086;16.282;2023-09-07T00:21:01;4.03;;;3.73;;
12921;SDS011;6528;48.086;16.282;2023-09-07T00:23:30;3.90;;;3.60;;
12921;SDS011;6528;48.086;16.282;2023-09-07T00:25:57;4.07;;;3.77;;
12921;SDS011;6528;48.086;16.282;2023-09-07T00:28:25;4.00;;;3.70;;
12921;SDS011;6528;48.086;16.282;2023-09-07T00:30:54;3.90;;;3.60;;
12921;SDS011;6528;48.086;16.282;2023-09-07T00:33:21;4.10;;;3.50;;
12921;SDS011;6528;48.086;16.282;2023-09-07T00:35:49;4.40;;;4.00;;
12921;SDS011;6528;48.086;16.282;2023-09-07T00:38:17;3.40;;;3.17;;
12921;SDS011;6528;48.086;16.282;2023-09-07T00:40:45;3.30;;;3.00;;
12921;SDS011;6528;48.086;16.282;2023-09-07T00:43:13;4.07;;;3.70;;
12921;SDS011;6528;48.086;16.282;2023-09-07T00:45:42;3.50;;;3.20;;
12921;SDS011;6528;48.086;16.282;2023-09-07T00:48:10;3.77;;;3.47;;
12921;SDS011;6528;48.086;16.282;2023-09-07T00:50:40;3.80;;;3.60;;
12921;SDS011;6528;48.086;16.282;2023-09-07T00:53:08;3.70;;;3.40;;
12921;SDS011;6528;48.086;16.282;2023-09-07T00:55:37;3.90;;;3.60;;
12921;SDS011;6528;48.086;16.282;2023-09-07T00:58:05;4.13;;;3.60;;
12921;SDS011;6528;48.086;16.282;2023-09-07T01:00:34;3.53;;;3.30;;
12921;SDS011;6528;48.086;16.282;2023-09-07T01:03:01;4.10;;;3.70;;
12921;SDS011;6528;48.086;16.282;2023-09-07T01:05:34;3.83;;;3.53;;
12921;SDS011;6528;48.086;16.282;2023-09-07T01:08:12;3.57;;;3.37;;
12921;SDS011;6528;48.086;16.282;2023-09-07T01:10:49;3.60;;;3.40;;
12921;SDS011;6528;48.086;16.282;2023-09-07T01:13:18;7.47;;;4.20;;
12921;SDS011;6528;48.086;16.282;2023-09-07T01:15:48;4.10;;;3.80;;
12921;SDS011;6528;48.086;16.282;2023-09-07T01:18:17;3.53;;;3.23;;
12921;SDS011;6528;48.086;16.282;2023-09-07T01:20:51;3.50;;;3.20;;
12921;SDS011;6528;48.086;16.282;2023-09-07T01:23:20;4.90;;;3.37;;
12921;SDS011;6528;48.086;16.282;2023-09-07T01:25:48;3.30;;;3.10;;
12921;SDS011;6528;48.086;16.282;2023-09-07T01:28:17;3.67;;;3.37;;
12921;SDS011;6528;48.086;16.282;2023-09-07T01:30:48;3.97;;;3.67;;
12921;SDS011;6528;48.086;16.282;2023-09-07T01:33:20;3.90;;;3.50;;
12921;SDS011;6528;48.086;16.282;2023-09-07T01:35:47;3.80;;;3.50;;
12921;SDS011;6528;48.086;16.282;2023-09-07T01:38:15;4.40;;;3.10;;
12921;SDS011;6528;48.086;16.282;2023-09-07T01:40:44;4.20;;;3.80;;
12921;SDS011;6528;48.086;16.282;2023-09-07T01:43:11;3.50;;;3.20;;
12921;SDS011;6528;48.086;16.282;2023-09-07T01:45:42;3.37;;;3.07;;
12921;SDS011;6528;48.086;16.282;2023-09-07T01:48:10;3.50;;;3.23;;
12921;SDS011;6528;48.086;16.282;2023-09-07T01:50:39;3.30;;;3.10;;
12921;SDS011;6528;48.086;16.282;2023-09-07T01:53:07;4.13;;;3.47;;
12921;SDS011;6528;48.086;16.282;2023-09-07T01:55:34;3.40;;;3.10;;
12921;SDS011;6528;48.086;16.282;2023-09-07T01:58:05;3.30;;;3.10;;
12921;SDS011;6528;48.086;16.282;2023-09-07T02:00:35;3.03;;;2.83;;
12921;SDS011;6528;48.086;16.282;2023-09-07T02:03:05;3.00;;;2.80;;
12921;SDS011;6528;48.086;16.282;2023-09-07T02:05:34;4.17;;;3.87;;
12921;SDS011;6528;48.086;16.282;2023-09-07T02:08:02;3.27;;;3.07;;
12921;SDS011;6528;48.086;16.282;2023-09-07T02:10:30;3.40;;;3.20;;
12921;SDS011;6528;48.086;16.282;2023-09-07T02:12:58;3.60;;;3.33;;
12921;SDS011;6528;48.086;16.282;2023-09-07T02:15:26;3.83;;;3.53;;
12921;SDS011;6528;48.086;16.282;2023-09-07T02:17:54;3.30;;;3.10;;
12921;SDS011;6528;48.086;16.282;2023-09-07T02:20:23;3.73;;;3.40;;
12921;SDS011;6528;48.086;16.282;2023-09-07T02:22:51;4.20;;;3.20;;
12921;SDS011;6528;48.086;16.282;2023-09-07T02:25:20;3.13;;;2.93;;
12921;SDS011;6528;48.086;16.282;2023-09-07T02:27:47;3.00;;;2.80;;
12921;SDS011;6528;48.086;16.282;2023-09-07T02:30:15;3.10;;;2.90;;
12921;SDS011;6528;48.086;16.282;2023-09-07T02:32:43;3.67;;;3.37;;
12921;SDS011;6528;48.086;16.282;2023-09-07T02:35:14;3.47;;;3.27;;
12921;SDS011;6528;48.086;16.282;2023-09-07T02:37:42;3.20;;;3.00;;
12921;SDS011;6528;48.086;16.282;2023-09-07T02:40:10;3.23;;;3.03;;
12921;SDS011;6528;48.086;16.282;2023-09-07T02:42:38;3.50;;;3.10;;
12921;SDS011;6528;48.086;16.282;2023-09-07T02:45:05;3.63;;;3.33;;
12921;SDS011;6528;48.086;16.282;2023-09-07T02:47:35;4.20;;;3.90;;
12921;SDS011;6528;48.086;16.282;2023-09-07T02:50:02;4.00;;;3.60;;
12921;SDS011;6528;48.086;16.282;2023-09-07T02:52:33;3.97;;;3.67;;
12921;SDS011;6528;48.086;16.282;2023-09-07T02:55:01;3.43;;;3.23;;
12921;SDS011;6528;48.086;16.282;2023-09-07T02:57:30;3.83;;;3.53;;
12921;SDS011;6528;48.086;16.282;2023-09-07T02:59:58;3.53;;;3.33;;
12921;SDS011;6528;48.086;16.282;2023-09-07T03:02:25;4.70;;;3.80;;
12921;SDS011;6528;48.086;16.282;2023-09-07T03:04:54;4.40;;;4.00;;
12921;SDS011;6528;48.086;16.282;2023-09-07T03:07:25;3.53;;;3.23;;
12921;SDS011;6528;48.086;16.282;2023-09-07T03:09:53;3.40;;;3.20;;
12921;SDS011;6528;48.086;16.282;2023-09-07T03:12:21;3.63;;;3.43;;
12921;SDS011;6528;48.086;16.282;2023-09-07T03:14:48;3.73;;;3.43;;
12921;SDS011;6528;48.086;16.282;2023-09-07T03:17:17;3.33;;;3.13;;
12921;SDS011;6528;48.086;16.282;2023-09-07T03:19:46;3.63;;;3.43;;
12921;SDS011;6528;48.086;16.282;2023-09-07T03:22:14;3.90;;;3.60;;
12921;SDS011;6528;48.086;16.282;2023-09-07T03:24:42;3.33;;;3.13;;
12921;SDS011;6528;48.086;16.282;2023-09-07T03:27:12;3.60;;;3.40;;
12921;SDS011;6528;48.086;16.282;2023-09-07T03:29:40;3.17;;;2.97;;
12921;SDS011;6528;48.086;16.282;2023-09-07T03:32:08;3.90;;;3.60;;
12921;SDS011;6528;48.086;16.282;2023-09-07T03:34:36;3.20;;;3.00;;
12921;SDS011;6528;48.086;16.282;2023-09-07T03:37:04;3.73;;;3.53;;
12921;SDS011;6528;48.086;16.282;2023-09-07T03:39:33;3.87;;;3.57;;
12921;SDS011;6528;48.086;16.282;2023-09-07T03:42:02;3.33;;;3.13;;
12921;SDS011;6528;48.086;16.282;2023-09-07T03:44:31;3.33;;;3.13;;
12921;SDS011;6528;48.086;16.282;2023-09-07T03:47:00;3.43;;;3.13;;
12921;SDS011;6528;48.086;16.282;2023-09-07T03:49:27;3.60;;;3.30;;
12921;SDS011;6528;48.086;16.282;2023-09-07T03:51:55;3.47;;;3.23;;
12921;SDS011;6528;48.086;16.282;2023-09-07T03:54:23;3.90;;;3.67;;
12921;SDS011;6528;48.086;16.282;2023-09-07T03:56:50;3.73;;;3.53;;
12921;SDS011;6528;48.086;16.282;2023-09-07T03:59:17;3.47;;;3.17;;
12921;SDS011;6528;48.086;16.282;2023-09-07T04:01:46;3.83;;;3.53;;
12921;SDS011;6528;48.086;16.282;2023-09-07T04:04:14;3.47;;;3.27;;
12921;SDS011;6528;48.086;16.282;2023-09-07T04:06:46;5.30;;;3.80;;
12921;SDS011;6528;48.086;16.282;2023-09-07T04:09:17;3.63;;;3.43;;
12921;SDS011;6528;48.086;16.282;2023-09-07T04:11:44;4.23;;;3.50;;
12921;SDS011;6528;48.086;16.282;2023-09-07T04:14:13;3.80;;;3.50;;
12921;SDS011;6528;48.086;16.282;2023-09-07T04:16:42;3.77;;;3.47;;
12921;SDS011;6528;48.086;16.282;2023-09-07T04:19:10;3.40;;;3.20;;
12921;SDS011;6528;48.086;16.282;2023-09-07T04:21:40;4.13;;;3.83;;
12921;SDS011;6528;48.086;16.282;2023-09-07T04:24:08;4.17;;;3.80;;
12921;SDS011;6528;48.086;16.282;2023-09-07T04:26:37;3.30;;;3.00;;
12921;SDS011;6528;48.086;16.282;2023-09-07T04:29:06;3.77;;;3.43;;
12921;SDS011;6528;48.086;16.282;2023-09-07T04:31:34;3.63;;;3.30;;
12921;SDS011;6528;48.086;16.282;2023-09-07T04:34:02;5.80;;;4.13;;
12921;SDS011;6528;48.086;16.282;2023-09-07T04:36:31;7.03;;;3.57;;
12921;SDS011;6528;48.086;16.282;2023-09-07T04:38:58;7.33;;;3.60;;
12921;SDS011;6528;48.086;16.282;2023-09-07T04:41:25;3.90;;;3.60;;
12921;SDS011;6528;48.086;16.282;2023-09-07T04:43:54;3.80;;;3.50;;
12921;SDS011;6528;48.086;16.282;2023-09-07T04:46:24;3.57;;;3.17;;
12921;SDS011;6528;48.086;16.282;2023-09-07T04:48:52;3.33;;;3.13;;
12921;SDS011;6528;48.086;16.282;2023-09-07T04:51:20;4.63;;;4.27;;
12921;SDS011;6528;48.086;16.282;2023-09-07T04:53:49;4.57;;;3.80;;
12921;SDS011;6528;48.086;16.282;2023-09-07T04:56:20;3.90;;;3.30;;
12921;SDS011;6528;48.086;16.282;2023-09-07T04:58:50;3.70;;;3.40;;
12921;SDS011;6528;48.086;16.282;2023-09-07T05:01:17;4.80;;;3.47;;
12921;SDS011;6528;48.086;16.282;2023-09-07T05:03:44;3.70;;;3.40;;
12921;SDS011;6528;48.086;16.282;2023-09-07T05:06:12;3.63;;;3.30;;
12921;SDS011;6528;48.086;16.282;2023-09-07T05:08:41;3.30;;;3.10;;
12921;SDS011;6528;48.086;16.282;2023-09-07T05:11:08;4.43;;;3.83;;
12921;SDS011;6528;48.086;16.282;2023-09-07T05:13:37;4.07;;;3.77;;
12921;SDS011;6528;48.086;16.282;2023-09-07T05:16:05;3.70;;;3.40;;
12921;SDS011;6528;48.086;16.282;2023-09-07T05:18:33;3.40;;;3.10;;
12921;SDS011;6528;48.086;16.282;2023-09-07T05:21:10;3.87;;;3.60;;
12921;SDS011;6528;48.086;16.282;2023-09-07T05:23:39;3.37;;;3.17;;
12921;SDS011;6528;48.086;16.282;2023-09-07T05:26:07;4.20;;;3.60;;
12921;SDS011;6528;48.086;16.282;2023-09-07T05:28:36;4.97;;;4.27;;
12921;SDS011;6528;48.086;16.282;2023-09-07T05:31:03;4.53;;;4.13;;
12921;SDS011;6528;48.086;16.282;2023-09-07T05:33:32;3.50;;;3.20;;
12921;SDS011;6528;48.086;16.282;2023-09-07T05:36:00;3.90;;;3.60;;
12921;SDS011;6528;48.086;16.282;2023-09-07T05:38:28;4.17;;;3.87;;
12921;SDS011;6528;48.086;16.282;2023-09-07T05:40:59;4.60;;;4.20;;
12921;SDS011;6528;48.086;16.282;2023-09-07T05:43:27;4.20;;;3.80;;
12921;SDS011;6528;48.086;16.282;2023-09-07T05:45:55;3.97;;;3.67;;
12921;SDS011;6528;48.086;16.282;2023-09-07T05:48:23;4.30;;;3.83;;
12921;SDS011;6528;48.086;16.282;2023-09-07T05:50:51;4.13;;;3.80;;
12921;SDS011;6528;48.086;16.282;2023-09-07T05:53:19;4.17;;;3.87;;
12921;SDS011;6528;48.086;16.282;2023-09-07T05:55:51;4.10;;;3.80;;
12921;SDS011;6528;48.086;16.282;2023-09-07T05:58:23;4.20;;;3.90;;
12921;SDS011;6528;48.086;16.282;2023-09-07T06:00:50;4.27;;;3.90;;
12921;SDS011;6528;48.086;16.282;2023-09-07T06:03:18;4.13;;;3.83;;
12921;SDS011;6528;48.086;16.282;2023-09-07T06:05:47;4.27;;;3.97;;
12921;SDS011;6528;48.086;16.282;2023-09-07T06:08:15;4.17;;;3.77;;
12921;SDS011;6528;48.086;16.282;2023-09-07T06:10:46;4.53;;;4.20;;
12921;SDS011;6528;48.086;16.282;2023-09-07T06:13:15;4.87;;;4.50;;
12921;SDS011;6528;48.086;16.282;2023-09-07T06:15:42;4.20;;;3.90;;
12921;SDS011;6528;48.086;16.282;2023-09-07T06:18:10;4.67;;;4.37;;
12921;SDS011;6528;48.086;16.282;2023-09-07T06:20:39;4.20;;;3.90;;
12921;SDS011;6528;48.086;16.282;2023-09-07T06:23:07;4.47;;;3.83;;
12921;SDS011;6528;48.086;16.282;2023-09-07T06:25:34;5.27;;;4.83;;
12921;SDS011;6528;48.086;16.282;2023-09-07T06:28:03;5.33;;;4.83;;
12921;SDS011;6528;48.086;16.282;2023-09-07T06:30:31;4.97;;;4.57;;
12921;SDS011;6528;48.086;16.282;2023-09-07T06:33:01;5.27;;;4.87;;
12921;SDS011;6528;48.086;16.282;2023-09-07T06:35:30;5.37;;;4.97;;
12921;SDS011;6528;48.086;16.282;2023-09-07T06:37:57;5.27;;;4.87;;
12921;SDS011;6528;48.086;16.282;2023-09-07T06:40:24;5.63;;;5.10;;
12921;SDS011;6528;48.086;16.282;2023-09-07T06:42:53;5.87;;;5.47;;
12921;SDS011;6528;48.086;16.282;2023-09-07T06:45:23;5.97;;;5.47;;
12921;SDS011;6528;48.086;16.282;2023-09-07T06:47:52;5.97;;;5.47;;
12921;SDS011;6528;48.086;16.282;2023-09-07T06:50:20;8.43;;;5.80;;
12921;SDS011;6528;48.086;16.282;2023-09-07T06:52:49;6.57;;;5.93;;
12921;SDS011;6528;48.086;16.282;2023-09-07T06:55:17;5.77;;;5.27;;
12921;SDS011;6528;48.086;16.282;2023-09-07T06:57:46;5.60;;;4.90;;
12921;SDS011;6528;48.086;16.282;2023-09-07T07:00:14;6.53;;;5.77;;
12921;SDS011;6528;48.086;16.282;2023-09-07T07:02:43;7.17;;;6.53;;
12921;SDS011;6528;48.086;16.282;2023-09-07T07:05:11;5.60;;;5.10;;
12921;SDS011;6528;48.086;16.282;2023-09-07T07:07:41;6.37;;;5.77;;
12921;SDS011;6528;48.086;16.282;2023-09-07T07:10:09;9.27;;;6.57;;
12921;SDS011;6528;48.086;16.282;2023-09-07T07:12:38;6.13;;;5.63;;
12921;SDS011;6528;48.086;16.282;2023-09-07T07:15:06;8.97;;;6.40;;
12921;SDS011;6528;48.086;16.282;2023-09-07T07:17:35;8.20;;;5.90;;
12921;SDS011;6528;48.086;16.282;2023-09-07T07:20:03;6.53;;;6.03;;
12921;SDS011;6528;48.086;16.282;2023-09-07T07:22:31;6.53;;;5.93;;
12921;SDS011;6528;48.086;16.282;2023-09-07T07:25:02;6.43;;;5.87;;
12921;SDS011;6528;48.086;16.282;2023-09-07T07:27:32;5.53;;;4.90;;
12921;SDS011;6528;48.086;16.282;2023-09-07T07:30:01;7.53;;;6.87;;
12921;SDS011;6528;48.086;16.282;2023-09-07T07:32:30;5.43;;;4.80;;
12921;SDS011;6528;48.086;16.282;2023-09-07T07:34:58;5.77;;;5.37;;
12921;SDS011;6528;48.086;16.282;2023-09-07T07:37:26;6.00;;;5.40;;
12921;SDS011;6528;48.086;16.282;2023-09-07T07:39:54;5.13;;;4.73;;
12921;SDS011;6528;48.086;16.282;2023-09-07T07:42:21;5.80;;;4.87;;
12921;SDS011;6528;48.086;16.282;2023-09-07T07:44:49;4.80;;;4.50;;
12921;SDS011;6528;48.086;16.282;2023-09-07T07:47:17;4.93;;;4.53;;
12921;SDS011;6528;48.086;16.282;2023-09-07T07:49:45;6.93;;;5.20;;
12921;SDS011;6528;48.086;16.282;2023-09-07T07:52:13;5.90;;;4.57;;
12921;SDS011;6528;48.086;16.282;2023-09-07T07:54:41;6.13;;;4.90;;
12921;SDS011;6528;48.086;16.282;2023-09-07T07:57:08;4.97;;;4.57;;
12921;SDS011;6528;48.086;16.282;2023-09-07T07:59:38;4.97;;;4.47;;
12921;SDS011;6528;48.086;16.282;2023-09-07T08:02:06;6.00;;;5.50;;
12921;SDS011;6528;48.086;16.282;2023-09-07T08:04:33;5.70;;;5.20;;
12921;SDS011;6528;48.086;16.282;2023-09-07T08:07:03;5.00;;;4.60;;
12921;SDS011;6528;48.086;16.282;2023-09-07T08:09:30;5.90;;;4.77;;
12921;SDS011;6528;48.086;16.282;2023-09-07T08:11:58;6.57;;;5.30;;
12921;SDS011;6528;48.086;16.282;2023-09-07T08:14:29;4.83;;;4.43;;
12921;SDS011;6528;48.086;16.282;2023-09-07T08:16:58;4.57;;;4.17;;
12921;SDS011;6528;48.086;16.282;2023-09-07T08:19:27;4.97;;;4.57;;
12921;SDS011;6528;48.086;16.282;2023-09-07T08:21:57;5.10;;;4.60;;
12921;SDS011;6528;48.086;16.282;2023-09-07T08:24:25;5.40;;;4.90;;
12921;SDS011;6528;48.086;16.282;2023-09-07T08:26:53;5.27;;;4.87;;
12921;SDS011;6528;48.086;16.282;2023-09-07T08:29:22;5.43;;;5.03;;
12921;SDS011;6528;48.086;16.282;2023-09-07T08:31:54;4.83;;;4.53;;
12921;SDS011;6528;48.086;16.282;2023-09-07T08:34:25;5.43;;;4.90;;
12921;SDS011;6528;48.086;16.282;2023-09-07T08:36:52;4.97;;;4.47;;
12921;SDS011;6528;48.086;16.282;2023-09-07T08:39:22;4.70;;;4.37;;
12921;SDS011;6528;48.086;16.282;2023-09-07T08:41:50;4.97;;;4.53;;
12921;SDS011;6528;48.086;16.282;2023-09-07T08:44:27;4.93;;;4.53;;
12921;SDS011;6528;48.086;16.282;2023-09-07T08:46:57;5.60;;;5.10;;
12921;SDS011;6528;48.086;16.282;2023-09-07T08:49:27;4.73;;;4.43;;
12921;SDS011;6528;48.086;16.282;2023-09-07T08:51:58;5.40;;;4.60;;
12921;SDS011;6528;48.086;16.282;2023-09-07T08:54:27;4.80;;;4.40;;
12921;SDS011;6528;48.086;16.282;2023-09-07T08:56:56;4.40;;;4.00;;
12921;SDS011;6528;48.086;16.282;2023-09-07T08:59:27;5.40;;;4.90;;
12921;SDS011;6528;48.086;16.282;2023-09-07T09:01:57;4.60;;;4.30;;
12921;SDS011;6528;48.086;16.282;2023-09-07T09:04:26;4.70;;;4.30;;
12921;SDS011;6528;48.086;16.282;2023-09-07T09:06:55;5.07;;;4.67;;
12921;SDS011;6528;48.086;16.282;2023-09-07T09:09:24;6.97;;;4.73;;
12921;SDS011;6528;48.086;16.282;2023-09-07T09:11:52;5.80;;;5.17;;
12921;SDS011;6528;48.086;16.282;2023-09-07T09:14:21;4.90;;;4.50;;
12921;SDS011;6528;48.086;16.282;2023-09-07T09:16:50;5.93;;;4.83;;
12921;SDS011;6528;48.086;16.282;2023-09-07T09:19:18;4.80;;;4.40;;
12921;SDS011;6528;48.086;16.282;2023-09-07T09:21:46;5.40;;;5.00;;
12921;SDS011;6528;48.086;16.282;2023-09-07T09:24:16;5.33;;;4.83;;
12921;SDS011;6528;48.086;16.282;2023-09-07T09:26:45;4.87;;;4.50;;
12921;SDS011;6528;48.086;16.282;2023-09-07T09:29:13;4.80;;;4.33;;
12921;SDS011;6528;48.086;16.282;2023-09-07T09:31:41;4.87;;;4.57;;
12921;SDS011;6528;48.086;16.282;2023-09-07T09:34:12;4.47;;;4.17;;
12921;SDS011;6528;48.086;16.282;2023-09-07T09:36:41;4.43;;;4.13;;
12921;SDS011;6528;48.086;16.282;2023-09-07T09:39:09;5.20;;;4.80;;
12921;SDS011;6528;48.086;16.282;2023-09-07T09:41:47;4.30;;;4.00;;
12921;SDS011;6528;48.086;16.282;2023-09-07T09:44:16;4.67;;;4.27;;
12921;SDS011;6528;48.086;16.282;2023-09-07T09:46:47;4.53;;;4.23;;
12921;SDS011;6528;48.086;16.282;2023-09-07T09:49:16;4.70;;;4.37;;
12921;SDS011;6528;48.086;16.282;2023-09-07T09:51:48;4.47;;;4.17;;
12921;SDS011;6528;48.086;16.282;2023-09-07T09:54:17;6.40;;;4.50;;
12921;SDS011;6528;48.086;16.282;2023-09-07T09:56:49;4.30;;;4.00;;
12921;SDS011;6528;48.086;16.282;2023-09-07T09:59:19;5.33;;;4.80;;
12921;SDS011;6528;48.086;16.282;2023-09-07T10:01:48;4.03;;;3.73;;
12921;SDS011;6528;48.086;16.282;2023-09-07T10:04:19;3.90;;;3.60;;
12921;SDS011;6528;48.086;16.282;2023-09-07T10:06:50;5.77;;;4.40;;
12921;SDS011;6528;48.086;16.282;2023-09-07T10:09:40;4.63;;;4.23;;
12921;SDS011;6528;48.086;16.282;2023-09-07T10:12:11;4.23;;;3.90;;
12921;SDS011;6528;48.086;16.282;2023-09-07T10:14:43;4.60;;;4.20;;
12921;SDS011;6528;48.086;16.282;2023-09-07T10:17:23;4.17;;;3.87;;
12921;SDS011;6528;48.086;16.282;2023-09-07T10:20:02;4.37;;;4.07;;
12921;SDS011;6528;48.086;16.282;2023-09-07T10:22:34;4.40;;;4.10;;
12921;SDS011;6528;48.086;16.282;2023-09-07T10:25:02;3.47;;;3.27;;
12921;SDS011;6528;48.086;16.282;2023-09-07T10:27:37;6.70;;;3.80;;
12921;SDS011;6528;48.086;16.282;2023-09-07T10:30:10;4.33;;;3.63;;
12921;SDS011;6528;48.086;16.282;2023-09-07T10:32:40;4.00;;;3.70;;
12921;SDS011;6528;48.086;16.282;2023-09-07T10:35:14;4.03;;;3.73;;
12921;SDS011;6528;48.086;16.282;2023-09-07T10:37:45;4.33;;;3.93;;
12921;SDS011;6528;48.086;16.282;2023-09-07T10:40:22;4.33;;;4.00;;
12921;SDS011;6528;48.086;16.282;2023-09-07T10:43:00;4.00;;;3.70;;
12921;SDS011;6528;48.086;16.282;2023-09-07T10:45:30;3.27;;;3.07;;
12921;SDS011;6528;48.086;16.282;2023-09-07T10:47:59;3.70;;;3.50;;
12921;SDS011;6528;48.086;16.282;2023-09-07T10:50:26;4.00;;;3.70;;
12921;SDS011;6528;48.086;16.282;2023-09-07T10:52:54;3.93;;;3.63;;
12921;SDS011;6528;48.086;16.282;2023-09-07T10:55:22;4.40;;;4.00;;
12921;SDS011;6528;48.086;16.282;2023-09-07T10:57:51;3.90;;;3.70;;
12921;SDS011;6528;48.086;16.282;2023-09-07T11:00:18;4.23;;;3.83;;
12921;SDS011;6528;48.086;16.282;2023-09-07T11:02:46;3.70;;;3.50;;
12921;SDS011;6528;48.086;16.282;2023-09-07T11:05:14;3.83;;;3.53;;
12921;SDS011;6528;48.086;16.282;2023-09-07T11:07:42;3.80;;;3.50;;
12921;SDS011;6528;48.086;16.282;2023-09-07T11:10:11;3.77;;;3.50;;
12921;SDS011;6528;48.086;16.282;2023-09-07T11:12:39;3.90;;;3.60;;
12921;SDS011;6528;48.086;16.282;2023-09-07T11:15:11;4.03;;;3.73;;
12921;SDS011;6528;48.086;16.282;2023-09-07T11:17:40;3.80;;;3.60;;
12921;SDS011;6528;48.086;16.282;2023-09-07T11:20:08;3.80;;;3.50;;
12921;SDS011;6528;48.086;16.282;2023-09-07T11:22:38;4.23;;;3.83;;
12921;SDS011;6528;48.086;16.282;2023-09-07T11:25:20;3.20;;;3.00;;
12921;SDS011;6528;48.086;16.282;2023-09-07T11:27:48;4.63;;;4.23;;
12921;SDS011;6528;48.086;16.282;2023-09-07T11:30:19;4.00;;;3.70;;
12921;SDS011;6528;48.086;16.282;2023-09-07T11:32:46;4.40;;;4.00;;
12921;SDS011;6528;48.086;16.282;2023-09-07T11:35:14;3.13;;;2.93;;
12921;SDS011;6528;48.086;16.282;2023-09-07T11:37:42;3.93;;;3.53;;
12921;SDS011;6528;48.086;16.282;2023-09-07T11:40:18;3.63;;;3.33;;
12921;SDS011;6528;48.086;16.282;2023-09-07T11:42:46;3.90;;;3.60;;
12921;SDS011;6528;48.086;16.282;2023-09-07T11:45:14;3.33;;;3.03;;
12921;SDS011;6528;48.086;16.282;2023-09-07T11:47:44;3.83;;;3.53;;
12921;SDS011;6528;48.086;16.282;2023-09-07T11:50:12;4.50;;;4.17;;
12921;SDS011;6528;48.086;16.282;2023-09-07T11:52:42;3.83;;;3.53;;
12921;SDS011;6528;48.086;16.282;2023-09-07T11:55:13;4.43;;;4.07;;
12921;SDS011;6528;48.086;16.282;2023-09-07T11:57:41;3.90;;;3.60;;
12921;SDS011;6528;48.086;16.282;2023-09-07T12:00:09;3.30;;;3.10;;
12921;SDS011;6528;48.086;16.282;2023-09-07T12:02:38;3.80;;;3.50;;
12921;SDS011;6528;48.086;16.282;2023-09-07T12:05:07;3.93;;;3.63;;
12921;SDS011;6528;48.086;16.282;2023-09-07T12:07:36;5.20;;;3.70;;
12921;SDS011;6528;48.086;16.282;2023-09-07T12:10:04;4.17;;;3.87;;
12921;SDS011;6528;48.086;16.282;2023-09-07T12:12:33;5.43;;;3.50;;
12921;SDS011;6528;48.086;16.282;2023-09-07T12:15:01;4.30;;;3.97;;
12921;SDS011;6528;48.086;16.282;2023-09-07T12:17:31;4.47;;;3.13;;
12921;SDS011;6528;48.086;16.282;2023-09-07T12:19:59;3.70;;;3.40;;
12921;SDS011;6528;48.086;16.282;2023-09-07T12:22:28;5.80;;;3.00;;
12921;SDS011;6528;48.086;16.282;2023-09-07T12:24:56;3.83;;;3.53;;
12921;SDS011;6528;48.086;16.282;2023-09-07T12:27:40;3.67;;;3.30;;
12921;SDS011;6528;48.086;16.282;2023-09-07T12:30:20;4.27;;;3.90;;
12921;SDS011;6528;48.086;16.282;2023-09-07T12:32:51;4.60;;;3.07;;
12921;SDS011;6528;48.086;16.282;2023-09-07T12:35:19;5.57;;;3.17;;
12921;SDS011;6528;48.086;16.282;2023-09-07T12:37:48;3.10;;;2.90;;
12921;SDS011;6528;48.086;16.282;2023-09-07T12:40:16;4.87;;;3.80;;
12921;SDS011;6528;48.086;16.282;2023-09-07T12:42:45;3.87;;;3.57;;
12921;SDS011;6528;48.086;16.282;2023-09-07T12:45:13;3.73;;;3.43;;
12921;SDS011;6528;48.086;16.282;2023-09-07T12:47:43;4.20;;;3.80;;
12921;SDS011;6528;48.086;16.282;2023-09-07T12:50:12;3.80;;;3.50;;
12921;SDS011;6528;48.086;16.282;2023-09-07T12:52:40;4.03;;;3.63;;
12921;SDS011;6528;48.086;16.282;2023-09-07T12:55:09;3.70;;;3.47;;
12921;SDS011;6528;48.086;16.282;2023-09-07T12:57:36;3.77;;;3.47;;
12921;SDS011;6528;48.086;16.282;2023-09-07T13:00:05;5.33;;;3.43;;
12921;SDS011;6528;48.086;16.282;2023-09-07T13:02:33;3.90;;;3.60;;
12921;SDS011;6528;48.086;16.282;2023-09-07T13:05:02;4.40;;;3.60;;
12921;SDS011;6528;48.086;16.282;2023-09-07T13:07:36;3.53;;;3.27;;
12921;SDS011;6528;48.086;16.282;2023-09-07T13:10:04;3.60;;;3.30;;
12921;SDS011;6528;48.086;16.282;2023-09-07T13:12:33;3.90;;;3.60;;
12921;SDS011;6528;48.086;16.282;2023-09-07T13:15:01;4.50;;;3.97;;
12921;SDS011;6528;48.086;16.282;2023-09-07T13:17:30;3.57;;;3.27;;
12921;SDS011;6528;48.086;16.282;2023-09-07T13:19:57;4.27;;;3.50;;
12921;SDS011;6528;48.086;16.282;2023-09-07T13:22:28;4.27;;;3.87;;
12921;SDS011;6528;48.086;16.282;2023-09-07T13:24:56;4.40;;;4.00;;
12921;SDS011;6528;48.086;16.282;2023-09-07T13:27:24;3.37;;;3.00;;
12921;SDS011;6528;48.086;16.282;2023-09-07T13:29:53;4.10;;;3.80;;
12921;SDS011;6528;48.086;16.282;2023-09-07T13:32:20;3.70;;;3.50;;
12921;SDS011;6528;48.086;16.282;2023-09-07T13:34:49;3.30;;;3.10;;
12921;SDS011;6528;48.086;16.282;2023-09-07T13:37:16;3.40;;;3.17;;
12921;SDS011;6528;48.086;16.282;2023-09-07T13:39:45;4.37;;;4.07;;
12921;SDS011;6528;48.086;16.282;2023-09-07T13:42:15;3.67;;;3.37;;
12921;SDS011;6528;48.086;16.282;2023-09-07T13:44:44;3.60;;;3.30;;
12921;SDS011;6528;48.086;16.282;2023-09-07T13:47:14;4.20;;;3.80;;
12921;SDS011;6528;48.086;16.282;2023-09-07T13:49:42;4.00;;;3.60;;
12921;SDS011;6528;48.086;16.282;2023-09-07T13:52:09;4.23;;;3.93;;
12921;SDS011;6528;48.086;16.282;2023-09-07T13:54:38;4.07;;;3.77;;
12921;SDS011;6528;48.086;16.282;2023-09-07T13:57:07;4.93;;;3.70;;
12921;SDS011;6528;48.086;16.282;2023-09-07T13:59:35;4.90;;;3.47;;
12921;SDS011;6528;48.086;16.282;2023-09-07T14:02:02;4.43;;;4.07;;
12921;SDS011;6528;48.086;16.282;2023-09-07T14:04:31;4.03;;;3.73;;
12921;SDS011;6528;48.086;16.282;2023-09-07T14:06:59;3.93;;;3.63;;
12921;SDS011;6528;48.086;16.282;2023-09-07T14:09:27;4.30;;;4.00;;
12921;SDS011;6528;48.086;16.282;2023-09-07T14:11:55;4.33;;;3.93;;
12921;SDS011;6528;48.086;16.282;2023-09-07T14:14:23;3.80;;;3.50;;
12921;SDS011;6528;48.086;16.282;2023-09-07T14:16:54;3.67;;;3.37;;
12921;SDS011;6528;48.086;16.282;2023-09-07T14:19:26;4.63;;;4.23;;
12921;SDS011;6528;48.086;16.282;2023-09-07T14:21:58;4.33;;;3.93;;
12921;SDS011;6528;48.086;16.282;2023-09-07T14:24:26;4.27;;;3.97;;
12921;SDS011;6528;48.086;16.282;2023-09-07T14:26:55;4.67;;;4.27;;
12921;SDS011;6528;48.086;16.282;2023-09-07T14:29:22;3.70;;;3.33;;
12921;SDS011;6528;48.086;16.282;2023-09-07T14:31:51;4.03;;;3.73;;
12921;SDS011;6528;48.086;16.282;2023-09-07T14:34:20;3.77;;;3.47;;
12921;SDS011;6528;48.086;16.282;2023-09-07T14:36:48;3.43;;;3.23;;
12921;SDS011;6528;48.086;16.282;2023-09-07T14:39:17;3.73;;;3.37;;
12921;SDS011;6528;48.086;16.282;2023-09-07T14:41:50;4.00;;;3.70;;
12921;SDS011;6528;48.086;16.282;2023-09-07T14:44:21;4.00;;;3.70;;
12921;SDS011;6528;48.086;16.282;2023-09-07T14:46:49;3.77;;;3.50;;
12921;SDS011;6528;48.086;16.282;2023-09-07T14:49:17;4.30;;;4.00;;
12921;SDS011;6528;48.086;16.282;2023-09-07T14:51:45;3.80;;;3.60;;
12921;SDS011;6528;48.086;16.282;2023-09-07T14:54:13;3.67;;;3.33;;
12921;SDS011;6528;48.086;16.282;2023-09-07T14:56:41;4.37;;;4.03;;
12921;SDS011;6528;48.086;16.282;2023-09-07T14:59:09;3.80;;;3.50;;